Sandbach, United Kingdom
Current Conditions -  °F | °C
As of 10:20 PM on Friday 19 Dec 2014 (Local Time) from EGCC Reporting Station
Light Rain Light Rain  
Wind Chill: 37°   Ceiling: 2400
Heat Index: 43°   Visibility: 6mi
Dew Point: 39°   Wind: 12mph
Humidity: 87%   Direction: 250°WSW
Pressure: 30.09"   Gusts: NA
Location:  53.14°N, 2.36°W
Report Text: EGCC 192220Z 25010KT 9999 -RA FEW018 BKN024 OVC034 06/04 Q1019 TEMPO SHRA
Loading
Personal Weather Stations






























Interactive Weather Map New forecast layout! Learn more

10-Day Weather Forecast

Advertisements
Track Severe Weather on mobile